Time;durP1;ratioP1;P1;durP2;ratioP2;P2;SDS_P1;SDS_P2;PMS_P1;PMS_P2;Temp;Humidity;BMP_temperature;BMP_pressure;BME280_temperature;BME280_humidity;BME280_pressure;Samples;Min_cycle;Max_cycle;Signal;HPM_P1;HPM_P2
2022/10/15 00:01:16;;;;;;;27.63;26.23;;;15.30;99.90;;;;;;4969940;28;20448;-77
2022/10/15 00:03:44;;;;;;;28.00;26.60;;;15.30;99.90;;;;;;4969808;28;20455;-79
2022/10/15 00:06:13;;;;;;;28.10;26.60;;;15.30;99.90;;;;;;4969913;28;20814;-76
2022/10/15 00:08:41;;;;;;;28.10;26.67;;;15.30;99.90;;;;;;4967791;28;20443;-76
2022/10/15 00:11:11;;;;;;;27.60;26.13;;;15.30;99.90;;;;;;4970103;28;20447;-76
2022/10/15 00:13:39;;;;;;;28.67;27.17;;;15.30;99.90;;;;;;4967394;28;20964;-77
2022/10/15 00:16:09;;;;;;;27.40;26.10;;;15.30;99.90;;;;;;4969911;28;20448;-75
2022/10/15 00:18:35;;;;;;;27.83;26.53;;;15.30;99.90;;;;;;4969832;28;20506;-78
2022/10/15 00:21:05;;;;;;;28.70;27.30;;;15.40;99.90;;;;;;4969596;28;20488;-75
2022/10/15 00:23:31;;;;;;;28.03;26.60;;;15.40;99.90;;;;;;4969630;28;20950;-76
2022/10/15 00:26:04;;;;;;;28.67;27.27;;;15.40;99.90;;;;;;4970267;28;20539;-79
2022/10/15 00:28:31;;;;;;;28.30;26.90;;;15.40;99.90;;;;;;4969899;28;20474;-78
2022/10/15 00:31:02;;;;;;;28.53;26.93;;;15.40;99.90;;;;;;4969335;28;20471;-79
2022/10/15 00:33:29;;;;;;;28.53;27.13;;;15.40;99.90;;;;;;4970021;28;20490;-78
2022/10/15 00:36:01;;;;;;;28.60;27.17;;;15.50;99.90;;;;;;4970150;28;20447;-79
2022/10/15 00:38:28;;;;;;;29.40;28.00;;;15.50;99.90;;;;;;4969891;28;20829;-78
2022/10/15 00:40:55;;;;;;;28.20;26.83;;;15.50;99.90;;;;;;4970012;28;20559;-78
2022/10/15 00:43:39;;;;;;;28.37;26.97;;;15.50;99.90;;;;;;4970091;28;20459;-78
2022/10/15 00:46:14;;;;;;;27.27;25.97;;;15.50;99.90;;;;;;4970117;28;20440;-79
2022/10/15 00:48:41;;;;;;;27.33;26.03;;;15.50;99.90;;;;;;4970212;28;20455;-83
2022/10/15 00:51:08;;;;;;;27.60;26.30;;;15.50;99.90;;;;;;4970219;28;20445;-83
2022/10/15 00:53:35;;;;;;;28.00;26.70;;;15.50;99.90;;;;;;4970127;28;20455;-79
2022/10/15 00:56:02;;;;;;;28.10;26.70;;;15.50;99.90;;;;;;4969851;28;21000;-82
2022/10/15 00:58:32;;;;;;;28.20;26.90;;;15.50;99.90;;;;;;4969843;28;20452;-81
2022/10/15 01:01:00;;;;;;;29.20;27.50;;;15.60;99.90;;;;;;4969814;28;20521;-82
2022/10/15 01:03:27;;;;;;;29.03;27.30;;;15.60;99.90;;;;;;4970146;28;20463;-82
2022/10/15 01:05:54;;;;;;;28.40;27.10;;;15.60;99.90;;;;;;4970323;28;20448;-81
2022/10/15 01:08:21;;;;;;;27.77;26.57;;;15.60;99.90;;;;;;4970099;28;20528;-82
2022/10/15 03:35:23;;;;;;;28.47;27.17;;;16.10;99.90;;;;;;5879544;23;20676;-82
2022/10/15 03:37:49;;;;;;;28.73;27.20;;;16.10;99.90;;;;;;4947960;29;20472;-83
2022/10/15 03:40:16;;;;;;;30.17;28.77;;;16.10;99.90;;;;;;4956294;28;20502;-83
2022/10/15 03:42:43;;;;;;;29.90;28.40;;;16.10;99.90;;;;;;4970654;28;20454;-84
2022/10/15 03:45:10;;;;;;;30.07;28.67;;;16.10;99.90;;;;;;4970241;28;20439;-79
2022/10/15 03:47:37;;;;;;;30.30;28.80;;;16.10;99.90;;;;;;4968869;28;20471;-81
2022/10/15 03:50:05;;;;;;;30.50;29.00;;;16.20;99.90;;;;;;4968838;28;20459;-82
2022/10/15 03:52:33;;;;;;;30.40;28.77;;;16.20;99.90;;;;;;4968642;28;20791;-81
2022/10/15 03:54:59;;;;;;;31.03;29.53;;;16.20;99.90;;;;;;4969520;28;20460;-81
2022/10/15 03:57:26;;;;;;;31.33;29.83;;;16.30;99.90;;;;;;4969016;28;20924;-79
2022/10/15 03:59:53;;;;;;;32.43;30.83;;;16.30;99.90;;;;;;4968457;28;20479;-77
2022/10/15 04:02:19;;;;;;;32.43;30.83;;;16.30;99.90;;;;;;4969016;28;20443;-79
2022/10/15 04:04:46;;;;;;;31.40;29.90;;;16.40;99.90;;;;;;4968228;28;20455;-77
2022/10/15 04:07:13;;;;;;;32.80;31.00;;;16.40;99.90;;;;;;4968561;28;20451;-78
2022/10/15 04:09:41;;;;;;;31.50;29.90;;;16.40;99.90;;;;;;4968864;28;20436;-78
2022/10/15 04:12:08;;;;;;;32.17;30.57;;;16.50;99.90;;;;;;4968453;28;20952;-78
2022/10/15 04:14:34;;;;;;;31.50;29.90;;;16.50;99.90;;;;;;4968508;28;20456;-79
2022/10/15 04:17:01;;;;;;;32.40;30.70;;;16.40;99.90;;;;;;4968346;28;20929;-78
2022/10/15 04:19:29;;;;;;;32.77;30.93;;;16.40;99.90;;;;;;4968912;28;20452;-82
2022/10/15 04:21:56;;;;;;;32.47;30.67;;;16.40;99.90;;;;;;4969072;28;20480;-82
2022/10/15 04:24:23;;;;;;;32.20;30.60;;;16.50;99.90;;;;;;4968290;28;20452;-80
2022/10/15 04:26:51;;;;;;;32.53;30.83;;;16.50;99.90;;;;;;4967847;28;21017;-79
2022/10/15 04:29:18;;;;;;;32.30;30.60;;;16.40;99.90;;;;;;4968041;28;20448;-78
2022/10/15 04:31:44;;;;;;;32.47;30.67;;;16.40;99.90;;;;;;4967572;28;20452;-77
2022/10/15 04:34:11;;;;;;;31.10;29.60;;;16.40;99.90;;;;;;4968266;28;20448;-76
2022/10/15 04:36:38;;;;;;;31.77;30.17;;;16.40;99.90;;;;;;4967785;28;21305;-77
2022/10/15 04:39:05;;;;;;;31.37;29.77;;;16.40;99.90;;;;;;4967890;28;20462;-76
2022/10/15 04:41:32;;;;;;;32.60;30.90;;;16.40;99.90;;;;;;4967887;28;20498;-77
2022/10/15 04:44:00;;;;;;;32.20;30.50;;;16.40;99.90;;;;;;4968276;28;20456;-78
2022/10/15 04:46:27;;;;;;;32.00;30.40;;;16.40;99.90;;;;;;4968022;28;20448;-78
2022/10/15 04:48:56;;;;;;;31.80;30.20;;;16.40;99.90;;;;;;4967965;28;20439;-78
2022/10/15 04:51:24;;;;;;;32.63;30.93;;;16.40;99.90;;;;;;4968148;28;20448;-78
2022/10/15 04:53:51;;;;;;;32.03;30.43;;;16.40;99.90;;;;;;4965424;28;20769;-78
2022/10/15 04:56:20;;;;;;;31.80;30.20;;;16.40;99.90;;;;;;4967541;28;20507;-77
2022/10/15 04:58:48;;;;;;;31.40;29.90;;;16.40;99.90;;;;;;4967534;28;20467;-77
2022/10/15 05:01:18;;;;;;;31.67;29.90;;;16.40;99.90;;;;;;4967776;28;21009;-77
2022/10/15 05:03:46;;;;;;;29.90;28.40;;;16.40;99.90;;;;;;4967590;28;20452;-78
2022/10/15 05:06:14;;;;;;;30.00;28.40;;;16.40;99.90;;;;;;4967819;28;20445;-76
2022/10/15 05:08:42;;;;;;;29.57;28.17;;;16.40;99.90;;;;;;4968075;28;20522;-76
2022/10/15 05:11:12;;;;;;;29.73;28.23;;;16.40;99.90;;;;;;4967729;28;20436;-78
2022/10/15 05:13:39;;;;;;;27.90;26.47;;;16.40;99.90;;;;;;4967470;28;20450;-78
2022/10/15 05:16:10;;;;;;;27.80;26.40;;;16.40;99.90;;;;;;4968605;28;21094;-77
2022/10/15 05:18:38;;;;;;;28.20;26.90;;;16.40;99.90;;;;;;4966360;28;20451;-77
2022/10/15 05:21:06;;;;;;;26.43;25.23;;;16.40;99.90;;;;;;4970942;28;20479;-77
2022/10/15 05:23:33;;;;;;;25.90;24.80;;;16.40;99.90;;;;;;4971171;28;20442;-77
2022/10/15 05:26:00;;;;;;;25.20;24.10;;;16.40;99.90;;;;;;4971070;28;20475;-77
2022/10/15 05:28:26;;;;;;;24.83;23.83;;;16.40;99.90;;;;;;4971494;28;20930;-77
2022/10/15 05:30:53;;;;;;;24.80;23.70;;;16.40;99.90;;;;;;4971055;28;20440;-76
2022/10/15 05:33:20;;;;;;;24.37;23.37;;;16.40;99.90;;;;;;4970977;28;20665;-76
2022/10/15 05:35:48;;;;;;;23.73;22.70;;;16.40;99.90;;;;;;4970523;28;20486;-79
2022/10/15 05:38:15;;;;;;;23.77;22.47;;;16.40;99.90;;;;;;4970561;28;20763;-80
2022/10/15 05:40:47;;;;;;;22.93;21.93;;;16.50;99.90;;;;;;4971049;28;20480;-80
2022/10/15 05:43:13;;;;;;;22.77;21.77;;;16.50;99.90;;;;;;4970906;28;20450;-80
2022/10/15 05:45:40;;;;;;;22.60;21.50;;;16.40;99.90;;;;;;4970995;28;20451;-80
2022/10/15 05:48:07;;;;;;;22.43;21.53;;;16.40;99.90;;;;;;4970074;28;20464;-81
2022/10/15 05:50:34;;;;;;;23.80;22.57;;;16.50;99.90;;;;;;4970075;28;20622;-81
2022/10/15 05:53:02;;;;;;;21.57;20.67;;;16.40;99.90;;;;;;4970333;28;20440;-82
2022/10/15 05:55:29;;;;;;;20.40;19.27;;;16.50;99.90;;;;;;4970162;28;20452;-83
2022/10/15 05:58:01;;;;;;;20.40;19.60;;;16.40;99.90;;;;;;4970363;28;20454;-80
2022/10/15 06:00:28;;;;;;;20.00;19.10;;;16.40;99.90;;;;;;4969817;28;20989;-80
2022/10/15 06:02:54;;;;;;;19.53;18.63;;;16.40;99.90;;;;;;4970644;28;20494;-79
2022/10/15 06:05:21;;;;;;;19.40;18.60;;;16.40;99.90;;;;;;4970464;28;20447;-81
2022/10/15 06:07:48;;;;;;;18.10;17.30;;;16.40;99.90;;;;;;4971579;28;20566;-81
2022/10/15 06:10:16;;;;;;;19.30;18.50;;;16.30;99.90;;;;;;4970479;28;20447;-81
2022/10/15 06:12:43;;;;;;;17.60;16.90;;;16.40;99.90;;;;;;4967812;28;20456;-81
2022/10/15 06:15:10;;;;;;;16.80;16.20;;;16.40;99.90;;;;;;4969942;28;20448;-82
2022/10/15 06:17:37;;;;;;;17.10;16.50;;;16.40;99.90;;;;;;4970036;28;20470;-79
2022/10/15 06:20:04;;;;;;;16.30;15.70;;;16.40;99.90;;;;;;4969596;28;20475;-82
2022/10/15 06:22:31;;;;;;;16.17;15.57;;;16.40;99.90;;;;;;4970383;28;20455;-80
2022/10/15 06:24:58;;;;;;;16.90;16.30;;;16.50;99.90;;;;;;4970785;28;20455;-84
2022/10/15 06:27:26;;;;;;;17.70;16.67;;;16.50;99.90;;;;;;4969794;28;20455;-82
2022/10/15 06:29:53;;;;;;;16.70;16.10;;;16.60;99.90;;;;;;4971032;28;20452;-81
2022/10/15 06:32:20;;;;;;;15.50;15.00;;;16.60;99.90;;;;;;4969757;28;20978;-83
2022/10/15 06:34:47;;;;;;;15.67;14.93;;;16.60;99.90;;;;;;4970020;28;20502;-77
2022/10/15 06:37:13;;;;;;;16.23;15.63;;;16.60;99.90;;;;;;4969878;28;20479;-79
2022/10/15 06:39:40;;;;;;;17.80;16.93;;;16.60;99.90;;;;;;4970231;28;20455;-85
2022/10/15 06:42:07;;;;;;;18.67;17.87;;;16.60;99.90;;;;;;4970943;28;20476;-86
2022/10/15 06:44:35;;;;;;;18.80;18.10;;;16.60;99.90;;;;;;4969936;28;20984;-82
2022/10/15 06:47:02;;;;;;;22.93;22.03;;;16.60;99.90;;;;;;4970918;28;20452;-79
2022/10/15 06:49:28;;;;;;;23.83;22.83;;;16.60;99.90;;;;;;4971113;28;20934;-77
2022/10/15 06:51:55;;;;;;;24.30;23.30;;;16.50;99.90;;;;;;4971022;28;20443;-83
2022/10/15 06:54:22;;;;;;;24.57;23.57;;;16.50;99.90;;;;;;4970576;28;20448;-81
2022/10/15 06:56:48;;;;;;;24.90;23.90;;;16.40;99.90;;;;;;4970175;28;20447;-79
2022/10/15 06:59:15;;;;;;;24.17;22.93;;;16.40;99.90;;;;;;4969778;28;20478;-77
2022/10/15 07:01:43;;;;;;;24.90;23.90;;;16.40;99.90;;;;;;4969637;28;20491;-76
2022/10/15 07:04:10;;;;;;;23.20;22.30;;;16.40;99.90;;;;;;4969525;28;20448;-77
2022/10/15 07:06:36;;;;;;;23.60;22.50;;;16.40;99.90;;;;;;4969049;28;20444;-76
2022/10/15 07:09:04;;;;;;;23.63;22.63;;;16.40;99.90;;;;;;4969477;28;20439;-76
2022/10/15 07:11:31;;;;;;;24.07;22.97;;;16.40;99.90;;;;;;4969922;28;20531;-78
2022/10/15 07:13:57;;;;;;;23.00;22.10;;;16.40;99.90;;;;;;4969822;28;20450;-77
2022/10/15 07:16:25;;;;;;;22.17;21.17;;;16.40;99.90;;;;;;4969317;28;20450;-78
2022/10/15 07:18:53;;;;;;;22.07;21.17;;;16.40;99.90;;;;;;4966142;28;20619;-78
2022/10/15 07:21:19;;;;;;;22.20;21.30;;;16.40;99.90;;;;;;4959502;28;21021;-78
2022/10/15 07:23:46;;;;;;;22.10;21.23;;;16.40;99.90;;;;;;4959769;28;20460;-78
2022/10/15 07:26:13;;;;;;;22.00;21.20;;;16.50;99.90;;;;;;4958239;28;20445;-78
2022/10/15 07:28:40;;;;;;;20.80;20.00;;;16.50;99.90;;;;;;4960197;28;20502;-79
2022/10/15 07:31:08;;;;;;;19.30;18.60;;;16.60;99.90;;;;;;4959711;28;20437;-79
2022/10/15 07:33:34;;;;;;;17.80;17.00;;;16.60;99.90;;;;;;4958252;28;20774;-79
2022/10/15 07:36:05;;;;;;;16.83;16.10;;;16.60;99.90;;;;;;4959540;28;20464;-79
2022/10/15 07:38:31;;;;;;;16.30;15.70;;;16.60;99.90;;;;;;4959932;28;20888;-78
2022/10/15 07:40:59;;;;;;;16.23;15.73;;;16.80;99.90;;;;;;4968991;28;20483;-80
2022/10/15 07:43:26;;;;;;;16.60;16.00;;;16.90;99.90;;;;;;4968501;28;20440;-80
2022/10/15 07:45:53;;;;;;;15.70;15.20;;;17.10;99.90;;;;;;4968462;28;20467;-80
2022/10/15 07:48:20;;;;;;;15.90;15.40;;;17.30;99.90;;;;;;4968258;28;20463;-81
2022/10/15 07:50:47;;;;;;;16.10;15.40;;;17.30;99.90;;;;;;4967046;28;20474;-81
2022/10/15 07:53:15;;;;;;;17.93;17.23;;;17.40;99.90;;;;;;4968888;28;20954;-83
2022/10/15 07:55:42;;;;;;;20.80;20.00;;;17.40;99.90;;;;;;4968953;28;20451;-80
2022/10/15 07:58:08;;;;;;;24.53;23.40;;;17.30;99.90;;;;;;4968767;28;20443;-82
2022/10/15 08:00:35;;;;;;;24.60;23.60;;;17.20;99.90;;;;;;4968540;28;20917;-84
2022/10/15 08:03:02;;;;;;;24.50;23.50;;;17.00;99.90;;;;;;4970064;28;20899;-82
2022/10/15 08:05:28;;;;;;;23.30;22.20;;;16.90;99.90;;;;;;4970549;28;20459;-86
2022/10/15 08:07:55;;;;;;;23.80;22.80;;;16.90;99.90;;;;;;4969119;28;20447;-82
2022/10/15 08:10:23;;;;;;;25.80;24.60;;;16.80;99.90;;;;;;4968703;28;20440;-79
2022/10/15 08:12:50;;;;;;;29.77;28.30;;;16.80;99.90;;;;;;4968587;28;20470;-75
2022/10/15 08:15:17;;;;;;;30.60;29.20;;;16.80;99.90;;;;;;4968339;28;20444;-76
2022/10/15 08:17:43;;;;;;;30.23;28.70;;;16.70;99.90;;;;;;4968813;28;20934;-80
2022/10/15 08:20:11;;;;;;;32.97;31.37;;;16.70;99.90;;;;;;4969259;28;20451;-82
2022/10/15 08:22:38;;;;;;;31.37;29.77;;;16.60;99.90;;;;;;4968868;28;20594;-78
2022/10/15 08:25:05;;;;;;;32.63;31.03;;;16.80;99.90;;;;;;4968986;28;20452;-81
2022/10/15 08:27:33;;;;;;;33.10;31.37;;;16.80;99.90;;;;;;4970357;28;20454;-88
2022/10/15 08:30:00;;;;;;;33.20;31.60;;;16.90;99.90;;;;;;4972834;28;20451;-87
2022/10/15 08:32:26;;;;;;;33.10;31.50;;;17.00;99.90;;;;;;4970526;28;20459;-85
2022/10/15 08:34:53;;;;;;;33.37;31.77;;;17.20;99.90;;;;;;4968678;28;20471;-87
2022/10/15 08:37:20;;;;;;;32.60;31.10;;;17.20;99.90;;;;;;4960898;28;20506;-87
2022/10/15 08:39:47;;;;;;;31.10;29.70;;;17.20;99.90;;;;;;4957563;28;20973;-85
2022/10/15 08:42:19;;;;;;;30.47;28.83;;;17.30;99.90;;;;;;4958730;28;20579;-85
2022/10/15 08:44:53;;;;;;;31.53;30.03;;;17.30;99.90;;;;;;4960199;28;20461;-85
2022/10/15 08:47:32;;;;;;;31.47;29.77;;;17.40;99.90;;;;;;4958235;28;20654;-84
2022/10/15 08:50:01;;;;;;;29.70;28.40;;;17.30;99.90;;;;;;4953163;28;20455;-80
2022/10/15 08:52:40;;;;;;;30.13;28.57;;;17.20;99.90;;;;;;4959612;28;20546;-78
2022/10/15 08:55:09;;;;;;;28.60;27.13;;;17.10;99.90;;;;;;4973086;28;20960;-78
2022/10/15 08:57:41;;;;;;;28.50;27.20;;;17.10;99.90;;;;;;4973501;28;20451;-79
2022/10/15 09:00:18;;;;;;;29.30;27.57;;;17.20;99.90;;;;;;4973098;28;20456;-79
2022/10/15 09:02:57;;;;;;;27.93;26.43;;;17.30;99.90;;;;;;4973375;28;20856;-78
2022/10/15 09:05:34;;;;;;;27.80;26.40;;;17.20;99.90;;;;;;4972783;28;20460;-78
2022/10/15 09:08:10;;;;;;;25.17;23.97;;;17.20;99.90;;;;;;4973250;28;20956;-76
2022/10/15 09:10:43;;;;;;;24.47;23.10;;;17.30;99.90;;;;;;4973315;28;20455;-77
2022/10/15 09:13:14;;;;;;;24.10;22.97;;;17.30;99.90;;;;;;4973049;28;20860;-78
2022/10/15 09:15:48;;;;;;;23.10;22.20;;;17.50;99.90;;;;;;4953546;28;20461;-77
2022/10/15 09:18:20;;;;;;;23.13;22.03;;;17.50;99.90;;;;;;4953682;28;20478;-78
2022/10/15 09:20:48;;;;;;;22.53;21.50;;;17.50;99.90;;;;;;4953798;28;20488;-77
2022/10/15 09:23:19;;;;;;;22.37;21.47;;;17.60;99.90;;;;;;4953533;28;20488;-78
2022/10/15 09:25:53;;;;;;;22.50;21.50;;;17.60;99.90;;;;;;4953835;28;20570;-79
2022/10/15 09:28:25;;;;;;;21.17;20.27;;;17.70;99.90;;;;;;4953595;28;20459;-80
2022/10/15 09:30:56;;;;;;;19.73;19.03;;;17.90;99.90;;;;;;4953500;28;20455;-80
2022/10/15 09:33:33;;;;;;;18.33;17.63;;;18.10;99.90;;;;;;4953774;28;20467;-80
2022/10/15 09:36:08;;;;;;;18.03;17.23;;;18.30;99.90;;;;;;4948689;28;20575;-80
2022/10/15 09:38:41;;;;;;;16.17;15.57;;;18.50;99.90;;;;;;4972530;28;20455;-77
2022/10/15 09:41:35;;;;;;;16.30;15.70;;;18.90;99.90;;;;;;4972626;28;20447;-78
2022/10/15 09:44:04;;;;;;;15.33;14.83;;;19.20;99.90;;;;;;4970233;28;20478;-78
2022/10/15 09:46:32;;;;;;;14.97;14.47;;;19.50;99.90;;;;;;4970157;28;20918;-79
2022/10/15 09:49:07;;;;;;;14.27;13.77;;;19.60;99.90;;;;;;4971981;28;20459;-78
2022/10/15 09:51:38;;;;;;;14.50;13.97;;;19.70;99.90;;;;;;4971588;28;20455;-78
2022/10/15 09:54:14;;;;;;;14.27;13.77;;;19.90;99.90;;;;;;4971667;28;20444;-77
2022/10/15 09:56:47;;;;;;;13.03;12.63;;;20.40;99.90;;;;;;4972045;28;20470;-76
2022/10/15 09:59:16;;;;;;;13.17;12.77;;;20.70;99.90;;;;;;4972157;28;20486;-76
2022/10/15 10:01:57;;;;;;;13.27;12.77;;;21.10;99.90;;;;;;4972042;28;20491;-76
2022/10/15 10:04:27;;;;;;;13.60;13.10;;;22.50;99.90;;;;;;4971840;28;20496;-76
2022/10/15 10:06:56;;;;;;;12.73;12.33;;;23.10;99.90;;;;;;4971673;28;20491;-76
2022/10/15 10:09:25;;;;;;;12.37;11.97;;;23.20;99.90;;;;;;4971572;28;20478;-76
2022/10/15 10:11:55;;;;;;;12.60;12.20;;;23.40;99.90;;;;;;4971530;28;20858;-77
2022/10/15 10:14:26;;;;;;;12.83;12.13;;;24.10;99.90;;;;;;4971192;28;20585;-76
2022/10/15 10:17:17;;;;;;;12.30;11.90;;;25.20;99.90;;;;;;4971185;28;20488;-76
2022/10/15 10:19:45;;;;;;;12.23;11.83;;;25.40;99.90;;;;;;4971265;28;20841;-77
2022/10/15 10:22:16;;;;;;;12.17;11.77;;;26.20;99.90;;;;;;4971473;28;20492;-76
2022/10/15 10:24:43;;;;;;;12.70;12.27;;;26.70;99.90;;;;;;4971288;28;20459;-77
2022/10/15 10:27:22;;;;;;;13.20;12.70;;;28.00;99.90;;;;;;4971107;28;20538;-77
2022/10/15 10:29:54;;;;;;;13.50;13.10;;;29.60;98.50;;;;;;4971086;28;20521;-76
2022/10/15 10:32:27;;;;;;;13.10;12.70;;;30.70;94.30;;;;;;4970820;28;20830;-76
2022/10/15 10:34:54;;;;;;;13.23;12.83;;;29.80;94.60;;;;;;4970971;28;20478;-76
2022/10/15 10:37:23;;;;;;;12.80;12.30;;;29.70;92.60;;;;;;4971083;28;20517;-76
2022/10/15 10:39:53;;;;;;;13.17;12.60;;;28.00;95.80;;;;;;4971238;28;20558;-76
2022/10/15 10:42:32;;;;;;;13.10;12.70;;;27.60;98.20;;;;;;4971488;28;21052;-76
2022/10/15 10:45:15;;;;;;;12.70;12.20;;;28.30;96.80;;;;;;4972231;28;20826;-73
2022/10/15 10:47:43;;;;;;;12.77;12.37;;;28.40;96.30;;;;;;4972240;28;20921;-76
2022/10/15 10:50:29;;;;;;;12.80;12.30;;;29.10;93.60;;;;;;4971953;28;20488;-75
2022/10/15 10:52:58;;;;;;;13.40;13.00;;;29.50;93.70;;;;;;4972024;28;20506;-75
2022/10/15 10:55:33;;;;;;;13.30;12.80;;;29.70;91.40;;;;;;4971819;28;20609;-74
2022/10/15 10:58:01;;;;;;;13.20;12.80;;;28.20;93.30;;;;;;4972035;28;20463;-75
2022/10/15 11:00:35;;;;;;;12.50;12.00;;;26.90;96.70;;;;;;4971961;28;20451;-75
2022/10/15 11:03:04;;;;;;;13.77;12.77;;;25.90;98.40;;;;;;4971801;28;20486;-75
2022/10/15 11:05:37;;;;;;;12.40;11.90;;;25.10;99.90;;;;;;4971809;28;20463;-75
2022/10/15 11:08:16;;;;;;;12.80;12.30;;;24.90;99.90;;;;;;4971439;28;20792;-75
2022/10/15 11:10:49;;;;;;;13.30;12.80;;;24.70;99.90;;;;;;4971821;28;20837;-76
2022/10/15 11:13:30;;;;;;;12.50;12.00;;;24.20;99.90;;;;;;4971159;28;20451;-76
2022/10/15 11:16:00;;;;;;;11.97;11.57;;;23.80;99.90;;;;;;4971583;28;20459;-75
2022/10/15 11:18:48;;;;;;;12.30;11.50;;;23.20;99.90;;;;;;4967728;28;20490;-76
2022/10/15 11:21:24;;;;;;;12.00;11.60;;;23.00;99.90;;;;;;4959341;28;20460;-76
2022/10/15 11:24:20;;;;;;;12.23;11.83;;;23.40;99.90;;;;;;4952114;29;20495;-76
2022/10/15 11:26:56;;;;;;;12.83;12.23;;;24.50;99.90;;;;;;4948053;28;20468;-76
2022/10/15 11:29:34;;;;;;;12.20;11.70;;;25.40;99.50;;;;;;4963118;28;20823;-76
2022/10/15 11:32:12;;;;;;;12.70;12.20;;;26.20;98.60;;;;;;4958024;28;20958;-76
2022/10/15 11:34:50;;;;;;;13.17;12.60;;;25.90;97.30;;;;;;4952754;28;20998;-76
2022/10/15 11:37:30;;;;;;;12.87;12.30;;;26.60;97.60;;;;;;4971686;28;20487;-76
2022/10/15 11:40:14;;;;;;;12.40;12.00;;;27.60;94.60;;;;;;4971877;28;20483;-76
2022/10/15 11:42:48;;;;;;;12.40;12.00;;;25.90;95.80;;;;;;4971748;28;20491;-76
2022/10/15 11:45:39;;;;;;;12.40;12.00;;;25.50;96.90;;;;;;4954362;28;20460;-74
2022/10/15 11:48:12;;;;;;;12.07;11.67;;;25.50;97.40;;;;;;4952078;29;20900;-74
2022/10/15 11:50:44;;;;;;;12.80;12.30;;;25.70;97.50;;;;;;4967442;28;20468;-76
2022/10/15 11:53:34;;;;;;;11.90;11.50;;;25.40;97.50;;;;;;4971524;28;20455;-74
2022/10/15 11:56:04;;;;;;;11.77;11.30;;;25.00;99.00;;;;;;4971047;28;20456;-75
2022/10/15 11:58:36;;;;;;;12.13;11.67;;;25.00;98.20;;;;;;4971002;28;20448;-75
2022/10/15 12:01:10;;;;;;;11.90;11.50;;;24.60;98.80;;;;;;4969327;28;20452;-75
2022/10/15 12:03:45;;;;;;;12.53;11.87;;;23.60;99.90;;;;;;4970895;28;21039;-75
2022/10/15 12:06:17;;;;;;;12.50;11.90;;;23.60;99.90;;;;;;4971277;28;20462;-75
2022/10/15 12:08:45;;;;;;;12.20;11.80;;;25.40;99.30;;;;;;4971237;28;20455;-75
2022/10/15 12:11:21;;;;;;;12.57;11.97;;;26.80;95.30;;;;;;4971044;28;20451;-75
2022/10/15 12:13:54;;;;;;;11.97;11.57;;;27.20;94.10;;;;;;4970750;28;21040;-73
2022/10/15 12:16:28;;;;;;;11.60;11.20;;;26.70;94.10;;;;;;4970613;28;20460;-73
2022/10/15 12:19:02;;;;;;;12.00;11.60;;;25.70;95.20;;;;;;4970922;28;20451;-74
2022/10/15 12:21:34;;;;;;;11.77;11.23;;;24.70;98.30;;;;;;4971015;28;20458;-74
2022/10/15 12:24:02;;;;;;;12.00;11.60;;;24.40;98.70;;;;;;4970574;28;20514;-75
2022/10/15 12:26:32;;;;;;;11.33;10.93;;;24.20;99.00;;;;;;4970717;28;20456;-73
2022/10/15 12:29:00;;;;;;;12.53;11.93;;;23.60;99.90;;;;;;4970668;28;20511;-73
2022/10/15 12:31:44;;;;;;;12.30;11.80;;;23.40;99.90;;;;;;4970808;28;20459;-74
2022/10/15 12:34:32;;;;;;;11.90;11.50;;;23.00;99.90;;;;;;4970323;28;20546;-74
2022/10/15 12:37:03;;;;;;;11.60;11.20;;;22.60;99.90;;;;;;4960683;28;20478;-73
2022/10/15 12:39:30;;;;;;;12.53;12.13;;;22.40;99.90;;;;;;4963724;28;20455;-74
2022/10/15 12:41:58;;;;;;;11.20;10.80;;;22.20;99.90;;;;;;4968271;28;20451;-73
2022/10/15 12:44:28;;;;;;;11.17;10.77;;;22.10;99.90;;;;;;4969723;28;20447;-73
2022/10/15 12:46:55;;;;;;;11.10;10.80;;;22.00;99.90;;;;;;4968045;28;20454;-73
2022/10/15 12:49:47;;;;;;;11.40;11.10;;;21.60;99.90;;;;;;4969453;28;20474;-73
2022/10/15 12:52:53;;;;;;;11.90;11.50;;;21.40;99.90;;;;;;4941173;29;20475;-74
2022/10/15 12:55:25;;;;;;;12.43;11.93;;;21.30;99.90;;;;;;4950635;28;20551;-74
2022/10/15 12:57:58;;;;;;;12.73;11.90;;;21.40;99.90;;;;;;4950585;29;20444;-74
2022/10/15 13:00:31;;;;;;;11.87;11.30;;;21.30;99.90;;;;;;4950649;29;20457;-74
2022/10/15 13:03:07;;;;;;;11.80;11.40;;;21.30;99.90;;;;;;4955857;28;20758;-74
2022/10/15 13:05:35;;;;;;;11.90;11.50;;;21.30;99.90;;;;;;4969659;28;20455;-74
2022/10/15 13:08:12;;;;;;;12.07;11.57;;;21.20;99.90;;;;;;4966731;28;20486;-73
2022/10/15 13:10:40;;;;;;;11.30;10.90;;;21.20;99.90;;;;;;4969687;28;20466;-74
2022/10/15 13:13:14;;;;;;;11.47;11.07;;;21.30;99.90;;;;;;4963733;28;20463;-73
2022/10/15 13:15:41;;;;;;;10.47;10.17;;;21.30;99.90;;;;;;4969957;28;20953;-73
2022/10/15 13:18:12;;;;;;;11.63;11.13;;;21.10;99.90;;;;;;4968916;28;20970;-74
2022/10/15 13:20:42;;;;;;;10.90;10.60;;;21.00;99.90;;;;;;4969540;28;20821;-74
2022/10/15 13:23:18;;;;;;;12.03;11.43;;;20.90;99.90;;;;;;4969610;28;20829;-75
2022/10/15 13:25:45;;;;;;;11.97;11.53;;;21.00;99.90;;;;;;4969208;28;20455;-74
2022/10/15 13:28:30;;;;;;;12.10;11.70;;;20.80;99.90;;;;;;4969651;28;20447;-74
2022/10/15 13:30:57;;;;;;;14.60;14.10;;;20.60;99.90;;;;;;4969893;28;20938;-77
2022/10/15 13:33:24;;;;;;;17.30;16.70;;;20.50;99.90;;;;;;4968067;28;20448;-80
2022/10/15 13:35:51;;;;;;;18.73;17.83;;;20.30;99.90;;;;;;4955904;28;20471;-79
2022/10/15 13:38:22;;;;;;;18.20;17.50;;;20.00;99.90;;;;;;4967785;28;20478;-81
2022/10/15 13:40:51;;;;;;;17.53;16.80;;;19.70;99.90;;;;;;4973747;28;20531;-81
2022/10/15 13:43:19;;;;;;;17.50;16.90;;;19.50;99.90;;;;;;4974878;28;20495;-81
2022/10/15 13:45:47;;;;;;;18.00;17.13;;;19.30;99.90;;;;;;4972898;28;20462;-80
2022/10/15 13:48:20;;;;;;;18.17;17.30;;;19.00;99.90;;;;;;4975313;28;20458;-79
2022/10/15 13:50:50;;;;;;;18.90;18.10;;;18.90;99.90;;;;;;4975583;28;20462;-79
2022/10/15 13:53:26;;;;;;;18.03;17.33;;;18.80;99.90;;;;;;4975243;28;20464;-80
2022/10/15 13:55:55;;;;;;;19.87;18.97;;;18.70;99.90;;;;;;4974998;28;20960;-80
2022/10/15 13:58:24;;;;;;;19.70;19.00;;;18.70;99.90;;;;;;4967734;28;20477;-81
2022/10/15 14:00:55;;;;;;;19.13;18.23;;;18.60;99.90;;;;;;4961990;28;20605;-82
2022/10/15 14:03:23;;;;;;;19.40;18.60;;;18.50;99.90;;;;;;4973509;28;20483;-81
2022/10/15 14:05:52;;;;;;;18.30;17.70;;;18.50;99.90;;;;;;4972229;28;20880;-78
2022/10/15 14:08:23;;;;;;;16.63;16.03;;;18.50;99.90;;;;;;4955613;29;20468;-78
2022/10/15 14:10:52;;;;;;;15.93;15.33;;;18.30;99.90;;;;;;4954824;29;20461;-78
2022/10/15 14:13:19;;;;;;;15.70;15.00;;;18.40;99.90;;;;;;4954543;29;20660;-78
2022/10/15 14:15:56;;;;;;;15.10;14.50;;;18.40;99.90;;;;;;4967925;28;20510;-77
2022/10/15 14:18:33;;;;;;;14.80;14.23;;;18.50;99.90;;;;;;4973170;28;20917;-76
2022/10/15 14:21:00;;;;;;;14.43;13.93;;;18.60;99.90;;;;;;4971375;28;20458;-75
2022/10/15 14:23:27;;;;;;;14.10;13.70;;;18.70;99.90;;;;;;4972682;28;20494;-76
2022/10/15 14:25:58;;;;;;;16.33;15.50;;;18.80;99.90;;;;;;4973608;28;20459;-82
2022/10/15 14:28:26;;;;;;;17.77;17.17;;;18.90;99.90;;;;;;4976057;28;20444;-89
2022/10/15 14:30:54;;;;;;;16.90;16.20;;;18.80;99.90;;;;;;4977217;28;20456;-86
2022/10/15 14:33:39;;;;;;;18.17;17.37;;;18.70;99.90;;;;;;4959023;28;20461;-85
2022/10/15 14:36:09;;;;;;;16.47;15.87;;;18.70;99.90;;;;;;4954662;28;20493;-82
2022/10/15 14:38:36;;;;;;;16.00;15.40;;;18.50;99.90;;;;;;4955264;29;20452;-82
2022/10/15 14:41:08;;;;;;;15.50;15.00;;;18.50;99.90;;;;;;4954724;29;20567;-80
2022/10/15 14:43:36;;;;;;;15.57;14.97;;;18.50;99.90;;;;;;4954946;28;20492;-80
2022/10/15 14:46:07;;;;;;;14.07;13.57;;;18.60;99.90;;;;;;4990043;28;20811;-79
2022/10/15 14:48:35;;;;;;;13.47;12.97;;;18.60;99.90;;;;;;4970000;28;20460;-79
2022/10/15 14:51:05;;;;;;;13.67;13.27;;;18.70;99.90;;;;;;4973054;28;20451;-78
2022/10/15 14:53:35;;;;;;;12.90;12.40;;;18.80;99.90;;;;;;4971986;28;20498;-76
2022/10/15 14:56:07;;;;;;;13.67;13.03;;;19.00;99.90;;;;;;4972166;28;20460;-77
2022/10/15 14:58:34;;;;;;;12.80;12.30;;;19.20;99.90;;;;;;4972362;28;20813;-77
2022/10/15 15:01:02;;;;;;;13.07;12.57;;;19.30;99.90;;;;;;4972396;28;20938;-78
2022/10/15 15:03:37;;;;;;;12.87;12.47;;;19.40;99.90;;;;;;4972194;28;20491;-76
2022/10/15 15:06:04;;;;;;;13.37;12.70;;;19.40;99.90;;;;;;4971986;28;20764;-76
2022/10/15 15:08:32;;;;;;;13.20;12.70;;;19.40;99.90;;;;;;4971734;28;20463;-76